createdAt,value
2022-08-07T00:00:03.024Z,82.8
2022-08-07T00:05:00.255Z,82.8
2022-08-07T00:10:25.583Z,83.1
2022-08-07T00:15:00.217Z,83.1
2022-08-07T00:20:03.386Z,83.7
2022-08-07T00:25:00.163Z,83.7
2022-08-07T00:30:00.187Z,84.3
2022-08-07T00:35:00.182Z,84.3
2022-08-07T00:40:00.372Z,84.3
2022-08-07T00:45:00.167Z,84.3
2022-08-07T00:50:19.536Z,84.9
2022-08-07T00:55:00.164Z,84.9
2022-08-07T01:00:00.229Z,84.9
2022-08-07T01:05:00.194Z,84.9
2022-08-07T01:10:06.945Z,85
2022-08-07T01:15:01.456Z,84.9
2022-08-07T01:20:00.193Z,84.9
2022-08-07T01:25:00.244Z,84.9
2022-08-07T01:30:00.629Z,84.9
2022-08-07T01:35:00.288Z,85
2022-08-07T01:40:00.302Z,84.9
2022-08-07T01:45:00.176Z,85
2022-08-07T01:50:00.610Z,85.3
2022-08-07T01:55:00.166Z,85.6
2022-08-07T02:00:00.177Z,85.6
2022-08-07T02:05:00.483Z,85.9
2022-08-07T02:10:00.562Z,86.2
2022-08-07T02:15:00.850Z,86.2
2022-08-07T02:20:04.109Z,86.2
2022-08-07T02:25:00.172Z,86.2
2022-08-07T02:30:00.170Z,86.2
2022-08-07T02:35:00.877Z,85.6
2022-08-07T02:40:11.746Z,85.9
2022-08-07T02:45:00.159Z,85.9
2022-08-07T02:50:00.533Z,85.9
2022-08-07T02:55:00.178Z,85.9
2022-08-07T03:00:01.361Z,86.3
2022-08-07T03:05:00.171Z,86
2022-08-07T03:10:00.184Z,86.3
2022-08-07T03:15:02.472Z,86.3
2022-08-07T03:20:00.183Z,85.9
2022-08-07T03:25:00.359Z,85.6
2022-08-07T03:30:00.177Z,85.3
2022-08-07T03:35:16.874Z,85.7
2022-08-07T03:40:14.859Z,85.6
2022-08-07T03:45:00.165Z,85.9
2022-08-07T03:50:00.184Z,85.3
2022-08-07T03:55:07.284Z,85.6
2022-08-07T04:00:02.823Z,85.6
2022-08-07T04:05:00.183Z,85.6
2022-08-07T04:10:02.164Z,85.6
2022-08-07T04:15:00.389Z,85.6
2022-08-07T04:20:00.171Z,85.6
2022-08-07T04:25:01.097Z,85.9
2022-08-07T04:30:01.990Z,86.5
2022-08-07T04:35:00.165Z,86.8
2022-08-07T04:40:00.349Z,86.5
2022-08-07T04:45:03.247Z,87.4
2022-08-07T04:50:03.997Z,87.4
2022-08-07T04:55:00.263Z,88.1
2022-08-07T05:00:13.113Z,88.1
2022-08-07T05:05:00.281Z,88.1
2022-08-07T05:10:00.703Z,87.8
2022-08-07T05:15:04.237Z,86.8
2022-08-07T05:20:00.207Z,87.2
2022-08-07T05:25:00.542Z,86.9
2022-08-07T05:30:00.180Z,86.9
2022-08-07T05:35:00.177Z,86.9
2022-08-07T05:40:14.398Z,86.3
2022-08-07T05:45:14.081Z,86
2022-08-07T05:50:00.179Z,86.3
2022-08-07T05:55:10.334Z,85.7
2022-08-07T06:00:00.281Z,85.7
2022-08-07T06:05:00.174Z,85
2022-08-07T06:10:05.718Z,85.7
2022-08-07T06:15:05.246Z,85.1
2022-08-07T06:20:04.411Z,84.8
2022-08-07T06:25:01.531Z,84.8
2022-08-07T06:30:00.181Z,84.4
2022-08-07T06:35:00.180Z,83.8
2022-08-07T06:40:17.162Z,83.6
2022-08-07T06:45:00.168Z,82.6
2022-08-07T06:50:00.171Z,82.3
2022-08-07T06:55:33.475Z,82.3
2022-08-07T07:00:11.356Z,81.7
2022-08-07T07:05:00.170Z,80.8
2022-08-07T07:10:00.187Z,80.2
2022-08-07T07:15:00.174Z,79.6
2022-08-07T07:20:00.184Z,79
2022-08-07T07:25:14.159Z,79
2022-08-07T07:30:09.939Z,78.3
2022-08-07T07:35:00.195Z,77.7
2022-08-07T07:40:00.176Z,77.7
2022-08-07T07:45:00.170Z,78.1
2022-08-07T07:50:34.645Z,77.1
2022-08-07T07:55:00.163Z,76.8
2022-08-07T08:00:00.178Z,76.5
2022-08-07T08:05:00.175Z,75.9
2022-08-07T08:10:05.359Z,74
2022-08-07T08:15:00.163Z,73.7
2022-08-07T08:20:17.367Z,74.1
2022-08-07T08:25:18.294Z,73.4
2022-08-07T08:30:02.815Z,74.4
2022-08-07T08:35:00.177Z,73.4
2022-08-07T08:40:00.366Z,71.9
2022-08-07T08:45:00.207Z,71
2022-08-07T08:50:04.718Z,69.1
2022-08-07T08:55:01.214Z,68.8
2022-08-07T09:00:00.289Z,67.6
2022-08-07T09:05:00.164Z,65.4
2022-08-07T09:10:03.310Z,64.8
2022-08-07T09:15:00.162Z,63.5
2022-08-07T09:20:00.199Z,62.9
2022-08-07T09:25:12.037Z,61.6
2022-08-07T09:30:04.955Z,59.1
2022-08-07T09:35:04.665Z,58.5
2022-08-07T09:40:00.326Z,59.1
2022-08-07T09:47:49.423Z,58.5
2022-08-07T09:50:19.277Z,60.5
2022-08-07T09:55:00.179Z,57.9
2022-08-07T10:00:01.540Z,57.9
2022-08-07T10:05:00.452Z,57.9
2022-08-07T10:10:02.869Z,56.6
2022-08-07T10:15:00.322Z,55.3
2022-08-07T10:20:00.262Z,54
2022-08-07T10:25:00.280Z,55.4
2022-08-07T10:30:00.186Z,56.7
2022-08-07T10:35:00.220Z,54.1
2022-08-07T10:40:05.166Z,55.7
2022-08-07T10:45:00.169Z,55.3
2022-08-07T10:50:00.183Z,52.8
2022-08-07T10:55:01.622Z,54
2022-08-07T11:00:00.162Z,52.8
2022-08-07T11:05:01.665Z,51.8
2022-08-07T11:10:08.576Z,53.2
2022-08-07T11:15:01.069Z,51.5
2022-08-07T11:20:00.174Z,50.9
2022-08-07T11:25:00.181Z,51
2022-08-07T11:30:17.863Z,49.4
2022-08-07T11:35:00.174Z,52.3
2022-08-07T11:40:03.402Z,47.4
2022-08-07T11:45:00.171Z,47.7
2022-08-07T11:50:30.486Z,48.4
2022-08-07T11:55:00.161Z,49.1
2022-08-07T12:00:11.220Z,45.2
2022-08-07T12:05:00.174Z,46.5
2022-08-07T12:10:02.139Z,46.2
2022-08-07T12:15:01.629Z,46.2
2022-08-07T12:20:06.362Z,45.5
2022-08-07T12:25:02.240Z,44.5
2022-08-07T12:30:00.178Z,44.5
2022-08-07T12:35:00.873Z,43.9
2022-08-07T12:40:00.232Z,43.9
2022-08-07T12:45:00.163Z,43.9
2022-08-07T12:50:05.151Z,45.2
2022-08-07T12:55:05.632Z,43.9
2022-08-07T13:00:00.180Z,45.2
2022-08-07T13:05:02.270Z,44.6
2022-08-07T13:10:19.372Z,45.2
2022-08-07T13:15:00.186Z,42.3
2022-08-07T13:20:00.173Z,42.7
2022-08-07T13:25:00.384Z,44.3
2022-08-07T13:30:00.177Z,44
2022-08-07T13:35:00.180Z,41.4
2022-08-07T13:40:36.404Z,42
2022-08-07T13:45:20.682Z,44
2022-08-07T13:50:33.870Z,43.3
2022-08-07T13:55:00.607Z,44
2022-08-07T14:00:00.297Z,42
2022-08-07T14:05:00.257Z,42.7
2022-08-07T14:10:02.634Z,42
2022-08-07T14:15:00.177Z,43.3
2022-08-07T14:20:42.160Z,43.3
2022-08-07T14:25:00.172Z,42.7
2022-08-07T14:30:09.844Z,44
2022-08-07T14:35:00.168Z,44.6
2022-08-07T14:40:15.654Z,42.6
2022-08-07T14:45:00.175Z,44
2022-08-07T14:50:00.308Z,40.5
2022-08-07T14:55:00.177Z,36.4
2022-08-07T15:05:01.674Z,36.3
2022-08-07T15:10:02.016Z,39.5
2022-08-07T15:15:00.174Z,39.8
2022-08-07T15:20:32.981Z,40.8
2022-08-07T15:25:13.686Z,41.4
2022-08-07T15:30:10.913Z,40.1
2022-08-07T15:35:00.183Z,41.4
2022-08-07T15:40:00.265Z,42.7
2022-08-07T15:45:00.204Z,43.3
2022-08-07T15:50:03.910Z,43.4
2022-08-07T15:55:02.456Z,43.4
2022-08-07T16:00:04.315Z,42.7
2022-08-07T16:05:00.204Z,42.1
2022-08-07T16:10:00.167Z,43.3
2022-08-07T16:15:00.225Z,44.6
2022-08-07T16:20:00.350Z,46.2
2022-08-07T16:25:00.283Z,43.6
2022-08-07T16:30:11.140Z,44.3
2022-08-07T16:35:00.226Z,43.9
2022-08-07T16:40:00.298Z,44.3
2022-08-07T16:45:14.940Z,44.9
2022-08-07T16:50:20.314Z,45.2
2022-08-07T16:55:00.189Z,44.6
2022-08-07T17:00:00.162Z,37
2022-08-07T17:05:00.190Z,34.2
2022-08-07T17:10:06.125Z,35.1
2022-08-07T17:15:00.162Z,39.6
2022-08-07T17:20:02.432Z,42.8
2022-08-07T17:25:00.201Z,43.7
2022-08-07T17:30:14.722Z,45.6
2022-08-07T17:35:49.720Z,47.2
2022-08-07T17:40:07.967Z,48.7
2022-08-07T17:45:00.182Z,48.7
2022-08-07T17:50:00.162Z,50.3
2022-08-07T17:55:00.184Z,50
2022-08-07T18:00:00.166Z,49.9
2022-08-07T18:05:00.185Z,51.8
2022-08-07T18:10:05.578Z,52.4
2022-08-07T18:15:00.164Z,54.4
2022-08-07T18:21:11.509Z,54.7
2022-08-07T18:25:00.165Z,55.9
2022-08-07T18:30:05.703Z,56.2
2022-08-07T18:35:01.651Z,55.9
2022-08-07T18:40:06.483Z,57.1
2022-08-07T18:45:44.319Z,57.1
2022-08-07T18:50:31.819Z,59
2022-08-07T18:55:08.423Z,59.9
2022-08-07T19:00:00.542Z,62.7
2022-08-07T19:05:15.121Z,64.6
2022-08-07T19:10:00.194Z,66.2
2022-08-07T19:15:00.590Z,68.4
2022-08-07T19:20:00.165Z,69.6
2022-08-07T19:25:06.274Z,70.8
2022-08-07T19:31:03.118Z,71.5
2022-08-07T19:35:00.183Z,72.1
2022-08-07T19:40:01.996Z,72.4
2022-08-07T19:45:00.714Z,72.6
2022-08-07T19:50:03.071Z,73.3
2022-08-07T19:55:00.171Z,72.6
2022-08-07T20:00:00.188Z,73.2
2022-08-07T20:05:00.380Z,73.9
2022-08-07T20:10:35.058Z,74.2
2022-08-07T20:15:00.171Z,74.5
2022-08-07T20:20:00.632Z,75.1
2022-08-07T20:25:00.205Z,75.7
2022-08-07T20:30:00.525Z,76.6
2022-08-07T20:35:00.166Z,77.2
2022-08-07T20:40:03.973Z,77.5
2022-08-07T20:45:00.206Z,78.2
2022-08-07T20:50:02.000Z,78.5
2022-08-07T20:55:00.340Z,79.1
2022-08-07T21:00:07.544Z,79.1
2022-08-07T21:05:00.281Z,78.7
2022-08-07T21:10:00.860Z,79.1
2022-08-07T21:15:00.900Z,78.7
2022-08-07T21:20:04.594Z,79.3
2022-08-07T21:25:00.163Z,79.7
2022-08-07T21:30:00.180Z,78.7
2022-08-07T21:35:00.164Z,79.7
2022-08-07T21:40:00.234Z,79.6
2022-08-07T21:45:00.186Z,79.9
2022-08-07T21:50:02.852Z,80.5
2022-08-07T21:55:00.180Z,81.2
2022-08-07T22:00:04.443Z,81.8
2022-08-07T22:05:00.181Z,81.7
2022-08-07T22:10:00.174Z,81.7
2022-08-07T22:15:00.596Z,81.7
2022-08-07T22:20:00.183Z,81.7
2022-08-07T22:25:00.164Z,81.4
2022-08-07T22:30:00.166Z,81.7
2022-08-07T22:35:00.181Z,82.3
2022-08-07T22:40:00.299Z,82
2022-08-07T22:45:00.178Z,82.7
2022-08-07T22:50:00.161Z,82.6
2022-08-07T22:55:00.177Z,82.9
2022-08-07T23:00:00.186Z,82.9
2022-08-07T23:06:10.293Z,82.9
2022-08-07T23:10:06.296Z,82.9
2022-08-07T23:15:00.171Z,82.9
2022-08-07T23:20:03.046Z,83.5
2022-08-07T23:25:00.179Z,83.5
2022-08-07T23:30:37.237Z,83.9
2022-08-07T23:35:01.080Z,83.5
2022-08-07T23:40:00.263Z,83.5
2022-08-07T23:45:00.178Z,83.5
2022-08-07T23:50:00.170Z,83.8
2022-08-07T23:55:00.186Z,83.5
